Time;durP1;ratioP1;P1;durP2;ratioP2;P2;SDS_P1;SDS_P2;PMS_P1;PMS_P2;Temp;Humidity;BMP_temperature;BMP_pressure;BME280_temperature;BME280_humidity;BME280_pressure;Samples;Min_cycle;Max_cycle;Signal;HPM_P1;HPM_P2
2022/06/23 00:00:24;;;;;;;;;;;;;;;;;;5052530;28;19971;-76
2022/06/23 00:02:51;;;;;;;;;;;;;;;;;;5052953;28;19924;-76
2022/06/23 00:05:19;;;;;;;;;;;;;;;;;;5054048;28;19978;-78
2022/06/23 00:07:48;;;;;;;;;;;;;;;;;;5052613;28;20027;-77
2022/06/23 00:10:16;;;;;;;;;;;;;;;;;;5052439;28;20010;-77
2022/06/23 00:12:44;;;;;;;;;;;;;;;;;;5052647;28;19987;-77
2022/06/23 00:15:23;;;;;;;;;;;;;;;;;;5053483;28;19925;-77
2022/06/23 00:17:55;;;;;;;;;;;;;;;;;;5052902;28;19931;-76
2022/06/23 00:20:25;;;;;;;;;;;;;;;;;;5051980;28;19931;-77
2022/06/23 00:22:52;;;;;;;;;;;;;;;;;;5056004;28;19993;-78
2022/06/23 00:25:26;;;;;;;;;;;;;;;;;;5054238;28;19976;-77
2022/06/23 00:27:53;;;;;;;;;;;;;;;;;;5053040;28;19980;-77
2022/06/23 00:30:23;;;;;;;;;;;;;;;;;;5053434;28;19925;-78
2022/06/23 00:32:50;;;;;;;;;;;;;;;;;;5052954;28;20465;-78
2022/06/23 00:35:18;;;;;;;;;;;;;;;;;;5053262;28;19979;-77
2022/06/23 00:37:46;;;;;;;;;;;;;;;;;;5053227;28;20015;-77
2022/06/23 00:40:14;;;;;;;;;;;;;;;;;;5053457;28;19963;-77
2022/06/23 00:42:41;;;;;;;;;;;;;;;;;;5053694;28;19925;-77
2022/06/23 00:45:18;;;;;;;;;;;;;;;;;;5053939;28;19997;-77
2022/06/23 00:47:48;;;;;;;;;;;;;;;;;;5054029;28;19983;-78
2022/06/23 00:50:20;;;;;;;;;;;;;;;;;;5053747;28;19999;-78
2022/06/23 00:52:47;;;;;;;;;;;;;;;;;;5053833;28;20387;-78
2022/06/23 00:55:15;;;;;;;;;;;;;;;;;;5053774;28;20020;-78
2022/06/23 00:57:43;;;;;;;;;;;;;;;;;;5060659;22;20434;-75
2022/06/23 01:00:15;;;;;;;;;;;;;;;;;;5037100;28;19929;-75
2022/06/23 01:02:44;;;;;;;;;;;;;;;;;;5032262;28;19925;-75
2022/06/23 01:05:15;;;;;;;;;;;;;;;;;;5032318;28;20370;-75
2022/06/23 01:07:46;;;;;;;;;;;;;;;;;;5032367;28;20315;-76
2022/06/23 01:10:18;;;;;;;;;;;;;;;;;;5032032;28;19925;-75
2022/06/23 01:12:47;;;;;;;;;;;;;;;;;;5032470;28;20011;-76
2022/06/23 01:15:19;;;;;;;;;;;;;;;;;;5032077;28;20003;-76
2022/06/23 01:17:49;;;;;;;;;;;;;;;;;;5032419;28;19964;-76
2022/06/23 01:20:29;;;;;;;;;;;;;;;;;;5032235;28;19925;-75
2022/06/23 01:23:14;;;;;;;;;;;;;;;;;;5033548;28;19925;-75
2022/06/23 01:25:53;;;;;;;;;;;;;;;;;;5033453;28;19932;-75
2022/06/23 01:28:22;;;;;;;;;;;;;;;;;;5034233;28;20351;-76
2022/06/23 01:30:52;;;;;;;;;;;;;;;;;;5035210;28;20395;-76
2022/06/23 01:33:22;;;;;;;;;;;;;;;;;;5035615;28;19973;-76
2022/06/23 01:35:54;;;;;;;;;;;;;;;;;;5035591;28;20019;-76
2022/06/23 01:38:22;;;;;;;;;;;;;;;;;;5035132;28;20008;-76
2022/06/23 01:40:52;;;;;;;;;;;;;;;;;;5035154;28;19929;-76
2022/06/23 01:43:19;;;;;;;;;;;;;;;;;;5035391;28;19957;-76
2022/06/23 01:45:50;;;;;;;;;;;;;;;;;;5035191;28;20319;-76
2022/06/23 01:48:51;;;;;;;;;;;;;;;;;;5035305;28;19932;-76
2022/06/23 01:51:06;;;;;;;;;;;;;;;;;;5034728;28;19931;-76
2022/06/23 01:53:34;;;;;;;;;;;;;;;;;;5035013;28;19968;-76
2022/06/23 01:56:08;;;;;;;;;;;;;;;;;;5035673;28;20008;-75
2022/06/23 01:58:40;;;;;;;;;;;;;;;;;;5035138;28;20388;-74
2022/06/23 02:01:13;;;;;;;;;;;;;;;;;;5034940;28;20413;-75
2022/06/23 02:03:42;;;;;;;;;;;;;;;;;;5034908;28;20477;-76
2022/06/23 02:06:16;;;;;;;;;;;;;;;;;;5035127;28;20012;-76
2022/06/23 02:11:46;;;;;;;;;;;;;;;;;;5039890;28;19962;-77
2022/06/23 02:14:16;;;;;;;;;;;;;;;;;;5036116;28;19925;-77
2022/06/23 02:16:46;;;;;;;;;;;;;;;;;;5035392;28;19925;-77
2022/06/23 02:19:18;;;;;;;;;;;;;;;;;;5034632;28;19929;-76
2022/06/23 02:21:46;;;;;;;;;;;;;;;;;;5034931;28;19994;-77
2022/06/23 02:24:16;;;;;;;;;;;;;;;;;;5035100;28;19929;-75
2022/06/23 02:26:49;;;;;;;;;;;;;;;;;;5034505;28;19925;-75
2022/06/23 02:29:20;;;;;;;;;;;;;;;;;;5034367;28;19929;-75
2022/06/23 02:31:50;;;;;;;;;;;;;;;;;;5034482;28;19935;-75
2022/06/23 02:34:19;;;;;;;;;;;;;;;;;;5034422;28;20362;-75
2022/06/23 02:37:03;;;;;;;;;;;;;;;;;;5034458;28;20040;-76
2022/06/23 02:39:31;;;;;;;;;;;;;;;;;;5033494;28;19979;-76
2022/06/23 02:41:59;;;;;;;;;;;;;;;;;;5035207;28;20024;-76
2022/06/23 02:44:33;;;;;;;;;;;;;;;;;;5034735;28;19932;-77
2022/06/23 02:47:12;;;;;;;;;;;;;;;;;;5035909;28;20354;-75
2022/06/23 02:49:56;;;;;;;;;;;;;;;;;;5034259;28;19932;-76
2022/06/23 02:52:43;;;;;;;;;;;;;;;;;;5034746;28;19929;-76
2022/06/23 02:55:16;;;;;;;;;;;;;;;;;;5027332;28;20442;-75
2022/06/23 02:57:44;;;;;;;;;;;;;;;;;;5033808;28;20020;-75
2022/06/23 03:00:16;;;;;;;;;;;;;;;;;;5034025;28;20015;-75
2022/06/23 03:02:49;;;;;;;;;;;;;;;;;;5034471;28;20338;-75
2022/06/23 03:05:19;;;;;;;;;;;;;;;;;;5033890;28;19925;-76
2022/06/23 03:07:48;;;;;;;;;;;;;;;;;;5034061;28;19932;-75
2022/06/23 03:10:17;;;;;;;;;;;;;;;;;;5033726;28;19925;-75
2022/06/23 03:12:45;;;;;;;;;;;;;;;;;;5034040;28;19932;-75
2022/06/23 03:15:15;;;;;;;;;;;;;;;;;;5034969;28;19929;-77
2022/06/23 03:17:45;;;;;;;;;;;;;;;;;;5034932;28;20024;-76
2022/06/23 03:20:14;;;;;;;;;;;;;;;;;;5034736;28;20419;-77
2022/06/23 03:22:44;;;;;;;;;;;;;;;;;;5035128;28;20308;-77
2022/06/23 03:25:15;;;;;;;;;;;;;;;;;;5034998;28;19931;-76
2022/06/23 03:27:46;;;;;;;;;;;;;;;;;;5034811;28;19976;-77
2022/06/23 03:30:16;;;;;;;;;;;;;;;;;;5034414;28;19929;-77
2022/06/23 03:32:46;;;;;;;;;;;;;;;;;;5033682;28;19980;-76
2022/06/23 03:35:18;;;;;;;;;;;;;;;;;;5033314;28;20042;-77
2022/06/23 03:37:48;;;;;;;;;;;;;;;;;;5033145;28;20308;-77
2022/06/23 03:43:06;;;;;;;;;;;;;;;;;;5033291;28;20011;-77
2022/06/23 03:45:34;;;;;;;;;;;;;;;;;;5033074;28;19929;-77
2022/06/23 03:48:04;;;;;;;;;;;;;;;;;;5033953;28;20299;-77
2022/06/23 03:50:34;;;;;;;;;;;;;;;;;;5033488;28;19925;-77
2022/06/23 03:53:02;;;;;;;;;;;;;;;;;;5033378;28;20390;-77
2022/06/23 03:55:30;;;;;;;;;;;;;;;;;;5033272;28;20008;-77
2022/06/23 03:57:57;;;;;;;;;;;;;;;;;;5032969;28;19933;-77
2022/06/23 04:00:30;;;;;;;;;;;;;;;;;;5049420;28;19979;-77
2022/06/23 04:03:04;;;;;;;;;;;;;;;;;;5052788;28;20027;-76
2022/06/23 04:05:40;;;;;;;;;;;;;;;;;;5052999;28;19975;-76
2022/06/23 04:08:07;;;;;;;;;;;;;;;;;;5053066;28;19960;-76
2022/06/23 04:10:37;;;;;;;;;;;;;;;;;;5053633;28;20011;-77
2022/06/23 04:13:08;;;;;;;;;;;;;;;;;;5054022;28;20023;-77
2022/06/23 04:15:36;;;;;;;;;;;;;;;;;;5052285;28;20020;-77
2022/06/23 04:18:04;;;;;;;;;;;;;;;;;;5052582;28;20051;-77
2022/06/23 04:20:34;;;;;;;;;;;;;;;;;;5052018;28;19931;-77
2022/06/23 04:23:02;;;;;;;;;;;;;;;;;;5052721;28;20020;-77
2022/06/23 04:25:35;;;;;;;;;;;;;;;;;;5052900;28;19925;-76
2022/06/23 04:28:02;;;;;;;;;;;;;;;;;;5052435;28;19972;-76
2022/06/23 04:30:32;;;;;;;;;;;;;;;;;;5052262;28;20307;-77
2022/06/23 04:33:01;;;;;;;;;;;;;;;;;;5053043;28;19924;-76
2022/06/23 04:35:30;;;;;;;;;;;;;;;;;;5052466;28;19925;-76
2022/06/23 04:38:01;;;;;;;;;;;;;;;;;;5052373;28;19932;-77
2022/06/23 04:40:34;;;;;;;;;;;;;;;;;;5053287;28;20045;-78
2022/06/23 04:43:02;;;;;;;;;;;;;;;;;;5054034;28;19935;-76
2022/06/23 04:45:33;;;;;;;;;;;;;;;;;;5052338;28;19975;-76
2022/06/23 04:48:01;;;;;;;;;;;;;;;;;;5052581;28;20113;-77
2022/06/23 04:50:39;;;;;;;;;;;;;;;;;;5052033;28;20385;-76
2022/06/23 04:53:16;;;;;;;;;;;;;;;;;;5051942;28;20383;-77
2022/06/23 04:55:43;;;;;;;;;;;;;;;;;;5052435;28;19928;-78
2022/06/23 04:58:14;;;;;;;;;;;;;;;;;;5051849;28;20004;-76
2022/06/23 05:00:43;;;;;;;;;;;;;;;;;;5052021;28;20437;-78
2022/06/23 05:03:14;;;;;;;;;;;;;;;;;;5054588;28;20388;-77
2022/06/23 05:05:41;;;;;;;;;;;;;;;;;;5055923;28;20028;-76
2022/06/23 05:08:13;;;;;;;;;;;;;;;;;;5056534;28;19929;-77
2022/06/23 05:10:45;;;;;;;;;;;;;;;;;;5056073;28;20018;-76
2022/06/23 05:13:16;;;;;;;;;;;;;;;;;;5056119;28;20007;-77
2022/06/23 05:15:44;;;;;;;;;;;;;;;;;;5056452;28;19924;-76
2022/06/23 05:18:11;;;;;;;;;;;;;;;;;;5056094;28;19964;-76
2022/06/23 05:20:46;;;;;;;;;;;;;;;;;;5055621;28;19964;-77
2022/06/23 05:23:20;;;;;;;;;;;;;;;;;;5055810;28;20572;-77
2022/06/23 05:25:48;;;;;;;;;;;;;;;;;;5055148;28;20007;-77
2022/06/23 05:28:17;;;;;;;;;;;;;;;;;;5055565;28;20019;-77
2022/06/23 05:30:48;;;;;;;;;;;;;;;;;;5055081;28;19928;-77
2022/06/23 05:33:16;;;;;;;;;;;;;;;;;;5055856;28;19964;-76
2022/06/23 05:35:44;;;;;;;;;;;;;;;;;;5055862;28;20015;-77
2022/06/23 05:38:22;;;;;;;;;;;;;;;;;;5055615;28;20019;-77
2022/06/23 05:40:52;;;;;;;;;;;;;;;;;;5055201;28;19960;-77
2022/06/23 05:43:19;;;;;;;;;;;;;;;;;;5055680;28;20045;-77
2022/06/23 05:45:46;;;;;;;;;;;;;;;;;;5056264;28;20023;-78
2022/06/23 05:48:16;;;;;;;;;;;;;;;;;;5056486;28;19964;-78
2022/06/23 05:50:44;;;;;;;;;;;;;;;;;;5054783;28;20012;-76
2022/06/23 05:53:13;;;;;;;;;;;;;;;;;;5055063;28;20391;-76
2022/06/23 05:55:43;;;;;;;;;;;;;;;;;;5056323;28;19925;-76
2022/06/23 05:58:15;;;;;;;;;;;;;;;;;;5056610;28;20004;-76
2022/06/23 06:00:44;;;;;;;;;;;;;;;;;;5055113;28;19968;-76
2022/06/23 06:03:16;;;;;;;;;;;;;;;;;;5055186;28;20462;-76
2022/06/23 06:05:44;;;;;;;;;;;;;;;;;;5057574;28;19924;-76
2022/06/23 06:08:13;;;;;;;;;;;;;;;;;;5058011;28;20405;-76
2022/06/23 06:10:40;;;;;;;;;;;;;;;;;;5058708;28;20346;-77
2022/06/23 06:13:11;;;;;;;;;;;;;;;;;;5056793;28;19956;-76
2022/06/23 06:15:40;;;;;;;;;;;;;;;;;;5054788;28;20019;-76
2022/06/23 06:18:08;;;;;;;;;;;;;;;;;;5055594;28;19970;-77
2022/06/23 06:20:36;;;;;;;;;;;;;;;;;;5055321;28;19986;-75
2022/06/23 06:23:05;;;;;;;;;;;;;;;;;;5055632;28;20367;-76
2022/06/23 06:25:33;;;;;;;;;;;;;;;;;;5054786;28;20410;-77
2022/06/23 06:28:01;;;;;;;;;;;;;;;;;;5055264;28;20011;-77
2022/06/23 06:30:30;;;;;;;;;;;;;;;;;;5054480;28;19925;-77
2022/06/23 06:32:58;;;;;;;;;;;;;;;;;;5054936;28;20011;-76
2022/06/23 06:35:28;;;;;;;;;;;;;;;;;;5054480;28;20012;-77
2022/06/23 06:37:56;;;;;;;;;;;;;;;;;;5054946;28;19925;-77
2022/06/23 06:40:23;;;;;;;;;;;;;;;;;;5056549;28;19935;-77
2022/06/23 06:42:51;;;;;;;;;;;;;;;;;;5056690;28;20015;-76
2022/06/23 06:45:19;;;;;;;;;;;;;;;;;;5059924;28;19968;-76
2022/06/23 06:47:46;;;;;;;;;;;;;;;;;;5056686;28;19925;-76
2022/06/23 06:50:23;;;;;;;;;;;;;;;;;;5055760;28;19929;-76
2022/06/23 06:52:51;;;;;;;;;;;;;;;;;;5055331;28;20031;-77
2022/06/23 06:55:20;;;;;;;;;;;;;;;;;;5055662;28;19925;-77
2022/06/23 06:57:49;;;;;;;;;;;;;;;;;;5078427;22;19915;-65
2022/06/23 07:00:19;;;;;;;;;;;;;;;;;;5010129;28;19925;-65
2022/06/23 07:02:48;;;;;;;;;;;;;;;;;;5026103;28;20228;-65
2022/06/23 07:05:21;;;;;;;;;;;;;;;;;;5032773;28;20348;-65
2022/06/23 07:07:52;;;;;;;;;;;;;;;;;;5032817;28;20390;-65
2022/06/23 07:10:25;;;;;;;;;;;;;;;;;;5032823;28;19925;-65
2022/06/23 07:12:53;;;;;;;;;;;;;;;;;;5033631;28;20437;-65
2022/06/23 07:15:23;;;;;;;;;;;;;;;;;;5032803;28;19995;-65
2022/06/23 07:17:52;;;;;;;;;;;;;;;;;;5032847;28;20018;-65
2022/06/23 07:20:22;;;;;;;;;;;;;;;;;;5032326;28;19975;-65
2022/06/23 07:22:53;;;;;;;;;;;;;;;;;;5032270;28;19979;-65
2022/06/23 07:25:23;;;;;;;;;;;;;;;;;;5031567;28;19925;-65
2022/06/23 07:27:51;;;;;;;;;;;;;;;;;;5031702;28;19998;-65
2022/06/23 07:30:19;;;;;;;;;;;;;;;;;;5032306;28;19925;-62
2022/06/23 07:32:48;;;;;;;;;;;;;;;;;;5032047;28;19925;-63
2022/06/23 07:35:22;;;;;;;;;;;;;;;;;;5031160;28;19932;-65
2022/06/23 07:37:54;;;;;;;;;;;;;;;;;;5031142;28;19987;-65
2022/06/23 07:40:22;;;;;;;;;;;;;;;;;;5031128;28;19929;-65
2022/06/23 07:42:53;;;;;;;;;;;;;;;;;;5031523;28;19925;-65
2022/06/23 07:45:22;;;;;;;;;;;;;;;;;;5031104;28;19971;-65
2022/06/23 07:47:48;;;;;;;;;;;;;;;;;;5031250;28;19979;-65
2022/06/23 07:50:15;;;;;;;;;;;;;;;;;;5030872;28;19925;-65
2022/06/23 07:52:43;;;;;;;;;;;;;;;;;;5030672;28;19936;-65
2022/06/23 07:55:16;;;;;;;;;;;;;;;;;;5030822;28;20293;-65
2022/06/23 07:57:43;;;;;;;;;;;;;;;;;;5030453;28;20040;-65
2022/06/23 08:00:10;;;;;;;;;;;;;;;;;;5030972;28;19929;-65
2022/06/23 08:02:42;;;;;;;;;;;;;;;;;;5030913;28;19929;-65
2022/06/23 08:05:10;;;;;;;;;;;;;;;;;;5030682;28;20417;-65
2022/06/23 08:07:37;;;;;;;;;;;;;;;;;;5030874;28;19925;-65
2022/06/23 08:10:07;;;;;;;;;;;;;;;;;;5030385;28;20001;-65
2022/06/23 08:12:53;;;;;;;;;;;;;;;;;;5030280;28;20413;-65
2022/06/23 08:18:09;;;;;;;;;;;;;;;;;;5030762;28;19932;-66
2022/06/23 08:20:46;;;;;;;;;;;;;;;;;;5030133;28;19925;-65
2022/06/23 08:23:13;;;;;;;;;;;;;;;;;;5030339;28;19980;-65
2022/06/23 08:25:42;;;;;;;;;;;;;;;;;;5030642;28;19929;-65
2022/06/23 08:28:11;;;;;;;;;;;;;;;;;;5031486;28;19925;-66
2022/06/23 08:30:39;;;;;;;;;;;;;;;;;;5030659;28;20440;-65
2022/06/23 08:33:06;;;;;;;;;;;;;;;;;;5030367;28;20412;-65
2022/06/23 08:35:37;;;;;;;;;;;;;;;;;;5030142;28;19952;-65
2022/06/23 08:38:07;;;;;;;;;;;;;;;;;;5029893;28;19980;-65
2022/06/23 08:40:41;;;;;;;;;;;;;;;;;;5030378;28;19925;-65
2022/06/23 08:43:14;;;;;;;;;;;;;;;;;;5030602;28;20293;-65
2022/06/23 08:45:41;;;;;;;;;;;;;;;;;;5030201;28;20396;-65
2022/06/23 08:48:11;;;;;;;;;;;;;;;;;;5030138;28;19932;-65
2022/06/23 08:50:40;;;;;;;;;;;;;;;;;;5030131;28;19948;-65
2022/06/23 08:53:12;;;;;;;;;;;;;;;;;;5030268;28;19925;-65
2022/06/23 08:55:41;;;;;;;;;;;;;;;;;;5030537;28;19925;-65
2022/06/23 08:58:12;;;;;;;;;;;;;;;;;;5030807;28;19932;-65
2022/06/23 09:00:46;;;;;;;;;;;;;;;;;;5030268;28;19979;-65
2022/06/23 09:03:15;;;;;;;;;;;;;;;;;;5029888;28;20393;-65
2022/06/23 09:05:44;;;;;;;;;;;;;;;;;;5030078;28;19925;-65
2022/06/23 09:08:16;;;;;;;;;;;;;;;;;;5030134;28;19925;-65
2022/06/23 09:10:53;;;;;;;;;;;;;;;;;;5030240;28;19936;-65
2022/06/23 09:13:28;;;;;;;;;;;;;;;;;;5030165;28;20357;-65
2022/06/23 09:16:07;;;;;;;;;;;;;;;;;;5030236;28;19936;-65
2022/06/23 09:18:48;;;;;;;;;;;;;;;;;;5030235;28;19998;-65
2022/06/23 09:21:20;;;;;;;;;;;;;;;;;;5027420;28;19925;-65
2022/06/23 09:23:55;;;;;;;;;;;;;;;;;;5029834;28;19979;-65
2022/06/23 09:26:25;;;;;;;;;;;;;;;;;;5030027;28;19926;-65
2022/06/23 09:28:53;;;;;;;;;;;;;;;;;;5030126;28;19925;-65
2022/06/23 09:31:22;;;;;;;;;;;;;;;;;;5029524;28;19971;-65
2022/06/23 09:34:02;;;;;;;;;;;;;;;;;;5029789;28;20441;-65
2022/06/23 09:36:44;;;;;;;;;;;;;;;;;;5029764;28;20001;-65
2022/06/23 09:39:25;;;;;;;;;;;;;;;;;;5029562;28;19925;-65
2022/06/23 09:42:01;;;;;;;;;;;;;;;;;;5029707;28;19928;-65
2022/06/23 09:44:46;;;;;;;;;;;;;;;;;;5029804;28;19971;-65
2022/06/23 09:47:31;;;;;;;;;;;;;;;;;;5030232;28;19929;-64
2022/06/23 09:50:04;;;;;;;;;;;;;;;;;;5022157;28;19979;-64
2022/06/23 09:52:41;;;;;;;;;;;;;;;;;;5033163;28;20341;-65
2022/06/23 09:55:17;;;;;;;;;;;;;;;;;;5032829;28;19925;-64
2022/06/23 09:58:02;;;;;;;;;;;;;;;;;;5033160;28;19925;-65
2022/06/23 10:00:34;;;;;;;;;;;;;;;;;;5032902;28;19925;-65
2022/06/23 10:03:04;;;;;;;;;;;;;;;;;;5033284;28;19933;-65
2022/06/23 10:05:45;;;;;;;;;;;;;;;;;;5033025;28;19983;-65
2022/06/23 10:08:23;;;;;;;;;;;;;;;;;;5030664;28;20464;-65
2022/06/23 10:10:58;;;;;;;;;;;;;;;;;;5032545;28;19925;-65
2022/06/23 10:13:32;;;;;;;;;;;;;;;;;;5033116;28;20581;-65
2022/06/23 10:16:04;;;;;;;;;;;;;;;;;;5032990;28;19931;-65
2022/06/23 10:18:45;;;;;;;;;;;;;;;;;;5032846;28;19929;-64
2022/06/23 10:21:16;;;;;;;;;;;;;;;;;;5032563;28;19925;-65
2022/06/23 10:23:51;;;;;;;;;;;;;;;;;;5032785;28;19991;-65
2022/06/23 10:26:24;;;;;;;;;;;;;;;;;;5033230;28;20370;-65
2022/06/23 10:29:05;;;;;;;;;;;;;;;;;;5032714;28;19925;-62
2022/06/23 10:31:38;;;;;;;;;;;;;;;;;;5029657;28;19975;-65
2022/06/23 10:34:12;;;;;;;;;;;;;;;;;;5032657;28;20398;-64
2022/06/23 10:36:53;;;;;;;;;;;;;;;;;;5032609;28;19925;-65
2022/06/23 10:39:28;;;;;;;;;;;;;;;;;;5032333;28;19925;-65
2022/06/23 10:42:04;;;;;;;;;;;;;;;;;;5032338;28;19929;-65
2022/06/23 10:44:54;;;;;;;;;;;;;;;;;;5032309;28;19933;-65
2022/06/23 10:47:29;;;;;;;;;;;;;;;;;;5032267;28;20382;-66
2022/06/23 10:50:12;;;;;;;;;;;;;;;;;;5032174;28;19932;-64
2022/06/23 10:52:53;;;;;;;;;;;;;;;;;;5032392;28;19929;-66
2022/06/23 10:55:26;;;;;;;;;;;;;;;;;;5030283;28;20023;-63
2022/06/23 10:58:11;;;;;;;;;;;;;;;;;;5032966;28;19925;-64
2022/06/23 11:00:41;;;;;;;;;;;;;;;;;;5031272;28;19929;-64
2022/06/23 11:03:26;;;;;;;;;;;;;;;;;;5032086;28;19925;-64
2022/06/23 11:05:59;;;;;;;;;;;;;;;;;;5021492;28;19929;-64
2022/06/23 11:08:37;;;;;;;;;;;;;;;;;;5031824;28;20451;-65
2022/06/23 11:11:13;;;;;;;;;;;;;;;;;;5031503;28;19932;-64
2022/06/23 11:13:45;;;;;;;;;;;;;;;;;;5031895;28;20437;-66
2022/06/23 11:16:19;;;;;;;;;;;;;;;;;;5033414;28;19929;-63
2022/06/23 11:18:52;;;;;;;;;;;;;;;;;;5032548;28;19941;-61
2022/06/23 11:21:32;;;;;;;;;;;;;;;;;;5033134;28;19983;-61
2022/06/23 11:24:02;;;;;;;;;;;;;;;;;;5033238;28;19925;-64
2022/06/23 11:26:36;;;;;;;;;;;;;;;;;;5031915;28;19925;-63
2022/06/23 11:29:12;;;;;;;;;;;;;;;;;;5031547;28;19932;-65
2022/06/23 11:31:43;;;;;;;;;;;;;;;;;;5031765;28;20309;-67
2022/06/23 11:34:24;;;;;;;;;;;;;;;;;;5031586;28;20329;-65
2022/06/23 11:36:58;;;;;;;;;;;;;;;;;;5031358;28;19932;-64
2022/06/23 11:39:41;;;;;;;;;;;;;;;;;;5031494;28;19979;-64
2022/06/23 11:42:15;;;;;;;;;;;;;;;;;;5031478;28;20378;-61
2022/06/23 11:44:48;;;;;;;;;;;;;;;;;;5031473;28;20456;-64
2022/06/23 11:47:18;;;;;;;;;;;;;;;;;;5031412;28;19995;-65
2022/06/23 11:49:50;;;;;;;;;;;;;;;;;;5031292;28;20421;-65
2022/06/23 11:52:34;;;;;;;;;;;;;;;;;;5031348;28;20394;-65
2022/06/23 11:55:16;;;;;;;;;;;;;;;;;;5031024;28;19931;-65
2022/06/23 11:57:56;;;;;;;;;;;;;;;;;;5031264;28;20332;-65
2022/06/23 12:00:25;;;;;;;;;;;;;;;;;;5030994;28;20046;-65
2022/06/23 12:02:58;;;;;;;;;;;;;;;;;;5031195;28;19929;-65
2022/06/23 12:05:30;;;;;;;;;;;;;;;;;;5031116;28;19933;-65
2022/06/23 12:08:05;;;;;;;;;;;;;;;;;;5031374;28;20302;-62
2022/06/23 12:10:32;;;;;;;;;;;;;;;;;;5030750;28;19925;-64
2022/06/23 12:13:02;;;;;;;;;;;;;;;;;;5030050;28;20452;-64
2022/06/23 12:15:30;;;;;;;;;;;;;;;;;;5030721;28;19933;-64
2022/06/23 12:17:59;;;;;;;;;;;;;;;;;;5030358;28;19975;-63
2022/06/23 12:20:28;;;;;;;;;;;;;;;;;;5030492;28;19941;-64
2022/06/23 12:22:59;;;;;;;;;;;;;;;;;;5030759;28;19925;-64
2022/06/23 12:25:29;;;;;;;;;;;;;;;;;;5030911;28;19932;-64
2022/06/23 12:28:00;;;;;;;;;;;;;;;;;;5032443;28;19929;-65
2022/06/23 12:30:31;;;;;;;;;;;;;;;;;;5036576;28;20016;-65
2022/06/23 12:33:00;;;;;;;;;;;;;;;;;;5036098;28;19925;-65
2022/06/23 12:35:30;;;;;;;;;;;;;;;;;;5036997;28;19925;-65
2022/06/23 12:38:00;;;;;;;;;;;;;;;;;;5036274;28;19956;-65
2022/06/23 12:40:29;;;;;;;;;;;;;;;;;;5036188;28;19925;-65
2022/06/23 12:42:58;;;;;;;;;;;;;;;;;;5035665;28;19968;-65
2022/06/23 12:45:33;;;;;;;;;;;;;;;;;;5035863;28;19952;-66
2022/06/23 12:48:10;;;;;;;;;;;;;;;;;;5036871;28;19925;-66
2022/06/23 12:50:44;;;;;;;;;;;;;;;;;;5035890;28;19932;-66
2022/06/23 12:53:16;;;;;;;;;;;;;;;;;;5035151;28;19979;-65
2022/06/23 12:55:53;;;;;;;;;;;;;;;;;;5036355;28;19925;-65
2022/06/23 13:01:06;;;;;;;;;;;;;;;;;;5045120;22;19929;-76
2022/06/23 13:03:35;;;;;;;;;;;;;;;;;;5029988;28;20419;-76
2022/06/23 13:06:19;;;;;;;;;;;;;;;;;;5030424;28;20028;-77
2022/06/23 13:08:50;;;;;;;;;;;;;;;;;;5030317;28;20292;-77
2022/06/23 13:11:19;;;;;;;;;;;;;;;;;;5030128;28;20028;-77
2022/06/23 13:13:48;;;;;;;;;;;;;;;;;;5030689;28;20015;-77
2022/06/23 13:16:18;;;;;;;;;;;;;;;;;;5030434;28;20402;-76
2022/06/23 13:18:47;;;;;;;;;;;;;;;;;;5030381;28;20563;-77
2022/06/23 13:21:16;;;;;;;;;;;;;;;;;;5030117;28;20296;-76
2022/06/23 13:23:45;;;;;;;;;;;;;;;;;;5030923;28;20366;-76
2022/06/23 13:26:15;;;;;;;;;;;;;;;;;;5033740;28;19925;-77
2022/06/23 13:28:44;;;;;;;;;;;;;;;;;;5033939;28;19929;-76
2022/06/23 13:31:13;;;;;;;;;;;;;;;;;;5041234;28;19928;-76
2022/06/23 13:33:44;;;;;;;;;;;;;;;;;;5053988;28;19925;-76
2022/06/23 13:36:16;;;;;;;;;;;;;;;;;;5054694;28;19964;-77
2022/06/23 13:38:45;;;;;;;;;;;;;;;;;;5054680;28;20015;-77
2022/06/23 13:41:15;;;;;;;;;;;;;;;;;;5054144;28;19924;-75
2022/06/23 13:43:46;;;;;;;;;;;;;;;;;;5054366;28;19964;-75
2022/06/23 13:46:15;;;;;;;;;;;;;;;;;;5054618;28;20366;-77
2022/06/23 13:48:47;;;;;;;;;;;;;;;;;;5054192;28;19979;-77
2022/06/23 13:51:16;;;;;;;;;;;;;;;;;;5053936;28;19973;-77
2022/06/23 13:53:45;;;;;;;;;;;;;;;;;;5054056;28;19951;-76
2022/06/23 13:56:17;;;;;;;;;;;;;;;;;;5053636;28;19986;-75
2022/06/23 13:58:48;;;;;;;;;;;;;;;;;;5050653;28;19925;-75
2022/06/23 14:01:19;;;;;;;;;;;;;;;;;;5033062;28;19935;-75
2022/06/23 14:03:49;;;;;;;;;;;;;;;;;;5033390;28;19925;-75
2022/06/23 14:06:18;;;;;;;;;;;;;;;;;;5033417;28;19969;-76
2022/06/23 14:08:50;;;;;;;;;;;;;;;;;;5033426;28;20016;-76
2022/06/23 14:11:20;;;;;;;;;;;;;;;;;;5032393;28;19925;-75
2022/06/23 14:13:50;;;;;;;;;;;;;;;;;;5033214;28;20047;-76
2022/06/23 14:16:20;;;;;;;;;;;;;;;;;;5033007;28;19929;-78
2022/06/23 14:18:52;;;;;;;;;;;;;;;;;;5032916;28;20446;-76
2022/06/23 14:21:24;;;;;;;;;;;;;;;;;;5032661;28;20004;-75
2022/06/23 14:23:53;;;;;;;;;;;;;;;;;;5033006;28;20502;-75
2022/06/23 14:26:21;;;;;;;;;;;;;;;;;;5032717;28;20028;-75
2022/06/23 14:28:50;;;;;;;;;;;;;;;;;;5032811;28;19966;-77
2022/06/23 14:31:18;;;;;;;;;;;;;;;;;;5032795;28;19925;-76
2022/06/23 14:33:46;;;;;;;;;;;;;;;;;;5032944;28;19929;-77
2022/06/23 14:36:17;;;;;;;;;;;;;;;;;;5031870;28;20036;-76
2022/06/23 14:38:47;;;;;;;;;;;;;;;;;;5032150;28;19933;-76
2022/06/23 14:41:24;;;;;;;;;;;;;;;;;;5032438;28;19960;-76
2022/06/23 14:44:02;;;;;;;;;;;;;;;;;;5034156;28;20015;-75
2022/06/23 14:46:35;;;;;;;;;;;;;;;;;;5034595;28;20339;-77
2022/06/23 14:49:23;;;;;;;;;;;;;;;;;;5039794;28;19925;-76
2022/06/23 14:51:53;;;;;;;;;;;;;;;;;;5033132;28;20032;-76
2022/06/23 14:54:22;;;;;;;;;;;;;;;;;;5046632;28;19929;-76
2022/06/23 14:56:52;;;;;;;;;;;;;;;;;;5049139;28;20020;-76
2022/06/23 14:59:22;;;;;;;;;;;;;;;;;;5044323;28;19931;-76
2022/06/23 15:01:52;;;;;;;;;;;;;;;;;;5032609;28;19960;-77
2022/06/23 15:04:23;;;;;;;;;;;;;;;;;;5031946;28;20071;-77
2022/06/23 15:06:56;;;;;;;;;;;;;;;;;;5030850;28;19933;-76
2022/06/23 15:09:28;;;;;;;;;;;;;;;;;;5030781;28;19925;-77
2022/06/23 15:11:58;;;;;;;;;;;;;;;;;;5031708;28;19925;-76
2022/06/23 15:14:29;;;;;;;;;;;;;;;;;;5031282;28;19924;-78
2022/06/23 15:16:59;;;;;;;;;;;;;;;;;;5032455;28;19969;-76
2022/06/23 15:19:31;;;;;;;;;;;;;;;;;;5032686;28;20490;-78
2022/06/23 15:24:48;;;;;;;;;;;;;;;;;;5032866;28;20633;-78
2022/06/23 15:27:17;;;;;;;;;;;;;;;;;;5033315;28;19976;-77
2022/06/23 15:29:48;;;;;;;;;;;;;;;;;;5032433;28;19968;-78
2022/06/23 15:32:18;;;;;;;;;;;;;;;;;;5033795;28;19931;-78
2022/06/23 15:34:48;;;;;;;;;;;;;;;;;;5037915;28;19973;-77
2022/06/23 15:37:21;;;;;;;;;;;;;;;;;;5037804;28;20396;-78
2022/06/23 15:39:50;;;;;;;;;;;;;;;;;;5034615;28;19925;-78
2022/06/23 15:42:19;;;;;;;;;;;;;;;;;;5033797;28;19964;-78
2022/06/23 15:44:49;;;;;;;;;;;;;;;;;;5033651;28;20024;-78
2022/06/23 15:47:18;;;;;;;;;;;;;;;;;;5032903;28;19975;-79
2022/06/23 15:49:48;;;;;;;;;;;;;;;;;;5032350;28;20008;-78
2022/06/23 15:52:20;;;;;;;;;;;;;;;;;;5032190;28;19925;-78
2022/06/23 15:54:48;;;;;;;;;;;;;;;;;;5032380;28;19972;-78
2022/06/23 15:57:19;;;;;;;;;;;;;;;;;;5032780;28;19932;-75
2022/06/23 15:59:49;;;;;;;;;;;;;;;;;;5042024;28;20003;-78
2022/06/23 16:02:27;;;;;;;;;;;;;;;;;;5047445;28;20415;-75
2022/06/23 16:04:57;;;;;;;;;;;;;;;;;;5042866;28;19925;-78
2022/06/23 16:07:26;;;;;;;;;;;;;;;;;;5040574;28;19925;-77
2022/06/23 16:09:56;;;;;;;;;;;;;;;;;;5034353;28;20463;-78
2022/06/23 16:12:28;;;;;;;;;;;;;;;;;;5030992;28;19929;-78
2022/06/23 16:14:56;;;;;;;;;;;;;;;;;;5039431;28;20022;-75
2022/06/23 16:17:24;;;;;;;;;;;;;;;;;;5039325;28;19933;-78
2022/06/23 16:19:53;;;;;;;;;;;;;;;;;;5046254;28;19932;-78
2022/06/23 16:22:21;;;;;;;;;;;;;;;;;;5041768;28;19995;-78
2022/06/23 16:24:52;;;;;;;;;;;;;;;;;;5043133;28;19932;-78
2022/06/23 16:27:22;;;;;;;;;;;;;;;;;;5041825;28;19925;-76
2022/06/23 16:29:50;;;;;;;;;;;;;;;;;;5034463;28;19929;-76
2022/06/23 16:32:19;;;;;;;;;;;;;;;;;;5031973;28;19925;-76
2022/06/23 16:34:49;;;;;;;;;;;;;;;;;;5030434;28;20363;-77
2022/06/23 16:37:19;;;;;;;;;;;;;;;;;;5037156;28;19932;-77
2022/06/23 16:39:48;;;;;;;;;;;;;;;;;;5038479;28;19979;-77
2022/06/23 16:42:25;;;;;;;;;;;;;;;;;;5040259;28;20015;-76
2022/06/23 16:44:53;;;;;;;;;;;;;;;;;;5037313;28;20454;-76
2022/06/23 16:47:22;;;;;;;;;;;;;;;;;;5039471;28;19931;-76
2022/06/23 16:49:57;;;;;;;;;;;;;;;;;;5040631;28;20303;-76
2022/06/23 16:52:29;;;;;;;;;;;;;;;;;;5041067;28;19943;-76
2022/06/23 16:55:00;;;;;;;;;;;;;;;;;;5040152;28;19975;-77
2022/06/23 16:57:35;;;;;;;;;;;;;;;;;;5039160;28;19957;-76
2022/06/23 17:00:05;;;;;;;;;;;;;;;;;;5049700;28;19925;-76
2022/06/23 17:02:34;;;;;;;;;;;;;;;;;;5050424;28;19940;-76
2022/06/23 17:05:02;;;;;;;;;;;;;;;;;;5034056;28;20422;-77
2022/06/23 17:07:31;;;;;;;;;;;;;;;;;;5034312;28;20470;-77
2022/06/23 17:09:59;;;;;;;;;;;;;;;;;;5034380;28;20029;-76
2022/06/23 17:12:33;;;;;;;;;;;;;;;;;;5040740;28;20011;-77
2022/06/23 17:15:06;;;;;;;;;;;;;;;;;;5041909;28;19979;-77
2022/06/23 17:17:34;;;;;;;;;;;;;;;;;;5044541;28;20024;-76
2022/06/23 17:20:00;;;;;;;;;;;;;;;;;;5033506;28;20484;-76
2022/06/23 17:22:31;;;;;;;;;;;;;;;;;;5033876;28;19925;-77
2022/06/23 17:24:59;;;;;;;;;;;;;;;;;;5033870;28;19925;-76
2022/06/23 17:27:30;;;;;;;;;;;;;;;;;;5033867;28;19947;-76